createdAt,value
2023-01-17T00:02:17.276Z,8.48
2023-01-17T00:05:41.722Z,8.46
2023-01-17T00:09:06.305Z,8.66
2023-01-17T00:12:13.159Z,8.80
2023-01-17T00:15:21.371Z,8.78
2023-01-17T00:18:28.143Z,8.89
2023-01-17T00:21:52.128Z,8.82
2023-01-17T00:25:16.240Z,8.84
2023-01-17T00:28:22.248Z,8.84
2023-01-17T00:31:27.847Z,8.86
2023-01-17T00:34:33.374Z,8.88
2023-01-17T00:37:42.297Z,8.91
2023-01-17T00:40:48.708Z,8.95
2023-01-17T00:44:13.453Z,9.13
2023-01-17T00:47:39.449Z,9.16
2023-01-17T00:51:03.624Z,9.21
2023-01-17T00:54:31.108Z,9.23
2023-01-17T00:57:55.189Z,9.15
2023-01-17T01:01:23.610Z,9.22
2023-01-17T01:04:48.405Z,9.06
2023-01-17T01:08:12.951Z,9.06
2023-01-17T01:11:39.568Z,9.00
2023-01-17T01:15:04.328Z,8.80
2023-01-17T01:18:30.616Z,8.64
2023-01-17T01:21:55.133Z,8.60
2023-01-17T01:25:19.862Z,8.35
2023-01-17T01:28:44.970Z,8.40
2023-01-17T01:32:09.681Z,8.66
2023-01-17T01:35:17.790Z,8.77
2023-01-17T01:38:26.539Z,8.94
2023-01-17T01:41:33.215Z,9.11
2023-01-17T01:44:49.064Z,9.16
2023-01-17T01:47:59.317Z,9.16
2023-01-17T01:51:11.012Z,9.22
2023-01-17T01:54:21.786Z,9.26
2023-01-17T01:57:31.278Z,9.43
2023-01-17T02:00:41.049Z,9.46
2023-01-17T02:03:49.104Z,9.51
2023-01-17T02:07:02.125Z,9.55
2023-01-17T02:10:12.932Z,9.59
2023-01-17T02:13:22.021Z,9.42
2023-01-17T02:16:46.426Z,9.44
2023-01-17T02:20:35.207Z,9.49
2023-01-17T02:24:03.331Z,9.49
2023-01-17T02:27:25.015Z,9.50
2023-01-17T02:30:36.865Z,9.57
2023-01-17T02:33:51.727Z,9.40
2023-01-17T02:37:05.560Z,9.45
2023-01-17T02:40:16.436Z,8.51
2023-01-17T02:43:25.935Z,7.18
2023-01-17T02:46:32.728Z,7.55
2023-01-17T02:49:39.532Z,8.24
2023-01-17T02:52:59.936Z,8.36
2023-01-17T02:56:11.716Z,8.35
2023-01-17T02:59:34.608Z,8.48
2023-01-17T03:02:51.457Z,8.61
2023-01-17T03:06:04.345Z,8.66
2023-01-17T03:09:14.439Z,8.73
2023-01-17T03:12:22.315Z,8.63
2023-01-17T03:15:29.690Z,8.54
2023-01-17T03:18:36.421Z,8.23
2023-01-17T03:21:43.042Z,8.29
2023-01-17T03:24:49.740Z,8.37
2023-01-17T03:27:56.476Z,8.40
2023-01-17T03:31:03.152Z,8.43
2023-01-17T03:34:10.019Z,8.36
2023-01-17T03:37:17.208Z,8.33
2023-01-17T03:40:23.922Z,8.18
2023-01-17T03:43:30.612Z,8.27
2023-01-17T03:46:37.540Z,8.36
2023-01-17T03:49:44.583Z,8.34
2023-01-17T03:52:51.339Z,8.61
2023-01-17T03:55:57.911Z,8.62
2023-01-17T03:59:05.660Z,8.57
2023-01-17T04:02:12.537Z,8.76
2023-01-17T04:05:19.575Z,8.96
2023-01-17T04:08:26.795Z,8.97
2023-01-17T04:11:33.532Z,8.92
2023-01-17T04:14:41.121Z,8.73
2023-01-17T04:17:48.303Z,8.84
2023-01-17T04:20:54.993Z,9.00
2023-01-17T04:24:01.767Z,8.98
2023-01-17T04:27:09.172Z,8.93
2023-01-17T04:30:16.513Z,8.82
2023-01-17T04:33:23.199Z,8.67
2023-01-17T04:36:29.935Z,8.69
2023-01-17T04:39:36.728Z,8.75
2023-01-17T04:42:45.276Z,8.85
2023-01-17T04:45:58.372Z,8.73
2023-01-17T04:49:05.190Z,8.79
2023-01-17T04:52:11.895Z,8.79
2023-01-17T04:55:18.976Z,9.01
2023-01-17T04:58:25.742Z,9.06
2023-01-17T05:01:32.626Z,9.11
2023-01-17T05:04:39.679Z,9.29
2023-01-17T05:07:53.510Z,8.69
2023-01-17T05:11:00.300Z,7.44
2023-01-17T05:14:07.036Z,7.78
2023-01-17T05:17:13.753Z,8.25
2023-01-17T05:20:20.934Z,8.62
2023-01-17T05:23:28.066Z,8.88
2023-01-17T05:26:34.771Z,9.04
2023-01-17T05:29:41.996Z,9.09
2023-01-17T05:32:51.515Z,9.10
2023-01-17T05:35:58.252Z,9.08
2023-01-17T05:39:05.143Z,8.84
2023-01-17T05:42:11.827Z,7.51
2023-01-17T05:45:20.266Z,7.01
2023-01-17T05:48:27.181Z,7.74
2023-01-17T05:51:37.782Z,8.12
2023-01-17T05:54:47.215Z,8.42
2023-01-17T05:57:54.587Z,8.55
2023-01-17T06:01:01.439Z,8.60
2023-01-17T06:04:08.442Z,8.66
2023-01-17T06:07:15.268Z,8.74
2023-01-17T06:10:23.355Z,8.77
2023-01-17T06:13:30.217Z,8.96
2023-01-17T06:16:37.052Z,8.91
2023-01-17T06:19:44.103Z,8.88
2023-01-17T06:22:50.826Z,8.85
2023-01-17T06:25:57.808Z,7.59
2023-01-17T06:29:05.229Z,6.85
2023-01-17T06:32:13.475Z,7.81
2023-01-17T06:35:22.220Z,8.43
2023-01-17T06:38:30.159Z,8.86
2023-01-17T06:41:37.045Z,9.17
2023-01-17T06:44:44.032Z,9.08
2023-01-17T06:47:50.792Z,7.84
2023-01-17T06:50:58.055Z,7.01
2023-01-17T06:54:07.673Z,7.56
2023-01-17T06:57:12.933Z,8.14
2023-01-17T07:00:21.057Z,8.53
2023-01-17T07:03:29.067Z,8.75
2023-01-17T07:06:38.184Z,8.81
2023-01-17T07:09:45.123Z,9.09
2023-01-17T07:12:52.664Z,8.94
2023-01-17T07:16:01.400Z,7.64
2023-01-17T07:19:10.607Z,7.25
2023-01-17T07:22:17.469Z,8.19
2023-01-17T07:25:25.583Z,8.66
2023-01-17T07:28:34.204Z,8.81
2023-01-17T07:31:41.232Z,9.14
2023-01-17T07:34:48.048Z,9.02
2023-01-17T07:37:55.686Z,7.79
2023-01-17T07:41:02.675Z,7.20
2023-01-17T07:44:10.052Z,7.97
2023-01-17T07:47:16.881Z,8.56
2023-01-17T07:50:23.871Z,8.94
2023-01-17T07:53:32.778Z,9.18
2023-01-17T07:56:40.092Z,8.91
2023-01-17T07:59:47.145Z,7.74
2023-01-17T08:02:58.653Z,7.19
2023-01-17T08:06:06.811Z,8.01
2023-01-17T08:09:13.781Z,8.73
2023-01-17T08:12:21.896Z,9.02
2023-01-17T08:15:30.789Z,9.23
2023-01-17T08:18:37.681Z,9.13
2023-01-17T08:21:44.622Z,7.90
2023-01-17T08:24:51.302Z,7.62
2023-01-17T08:28:00.831Z,8.31
2023-01-17T08:31:11.299Z,8.79
2023-01-17T08:34:18.167Z,9.28
2023-01-17T08:37:25.347Z,9.24
2023-01-17T08:40:32.965Z,8.14
2023-01-17T08:43:42.238Z,7.52
2023-01-17T08:46:49.131Z,8.24
2023-01-17T08:49:56.118Z,8.96
2023-01-17T08:53:02.930Z,9.52
2023-01-17T08:56:12.066Z,9.40
2023-01-17T08:59:18.924Z,8.20
2023-01-17T09:02:25.927Z,7.68
2023-01-17T09:05:34.220Z,8.38
2023-01-17T09:08:41.738Z,8.98
2023-01-17T09:11:48.600Z,9.40
2023-01-17T09:14:56.477Z,9.61
2023-01-17T09:18:03.488Z,9.24
2023-01-17T09:21:15.259Z,8.13
2023-01-17T09:24:22.159Z,8.34
2023-01-17T09:27:28.867Z,8.99
2023-01-17T09:30:36.110Z,9.42
2023-01-17T09:33:43.379Z,9.62
2023-01-17T09:36:50.314Z,8.56
2023-01-17T09:39:57.143Z,8.33
2023-01-17T09:43:08.871Z,9.11
2023-01-17T09:46:22.779Z,9.86
2023-01-17T09:49:40.856Z,10.38
2023-01-17T09:52:48.094Z,10.05
2023-01-17T09:55:59.307Z,8.97
2023-01-17T09:59:33.264Z,8.89
2023-01-17T10:03:04.180Z,9.75
2023-01-17T10:06:23.533Z,10.31
2023-01-17T10:09:38.604Z,10.22
2023-01-17T10:12:57.655Z,9.11
2023-01-17T10:16:18.296Z,8.87
2023-01-17T10:19:42.874Z,9.72
2023-01-17T10:23:10.894Z,10.12
2023-01-17T10:26:21.563Z,9.47
2023-01-17T10:29:34.114Z,9.25
2023-01-17T10:32:48.221Z,10.11
2023-01-17T10:36:01.415Z,10.15
2023-01-17T10:39:26.553Z,9.20
2023-01-17T10:42:47.491Z,8.45
2023-01-17T10:45:57.772Z,8.79
2023-01-17T10:49:05.125Z,9.57
2023-01-17T10:52:19.200Z,9.10
2023-01-17T10:55:39.114Z,8.59
2023-01-17T10:58:48.217Z,9.29
2023-01-17T11:01:55.154Z,9.62
2023-01-17T11:05:12.269Z,8.91
2023-01-17T11:08:22.653Z,8.33
2023-01-17T11:11:32.175Z,7.97
2023-01-17T11:14:37.855Z,7.92
2023-01-17T11:17:50.070Z,8.90
2023-01-17T11:21:13.022Z,9.03
2023-01-17T11:24:28.299Z,8.39
2023-01-17T11:27:39.517Z,7.98
2023-01-17T11:30:54.755Z,7.71
2023-01-17T11:34:17.945Z,8.31
2023-01-17T11:37:26.362Z,9.66
2023-01-17T11:40:37.540Z,9.70
2023-01-17T11:43:53.361Z,8.86
2023-01-17T11:47:20.254Z,8.25
2023-01-17T11:50:28.716Z,7.89
2023-01-17T11:53:38.257Z,8.65
2023-01-17T11:56:46.579Z,9.98
2023-01-17T11:59:58.563Z,10.22
2023-01-17T12:03:21.228Z,9.39
2023-01-17T12:06:56.500Z,8.73
2023-01-17T12:10:13.970Z,8.29
2023-01-17T12:13:45.838Z,8.86
2023-01-17T12:17:06.123Z,9.59
2023-01-17T12:20:22.681Z,8.96
2023-01-17T12:23:57.950Z,8.43
2023-01-17T12:27:12.881Z,8.05
2023-01-17T12:30:35.671Z,8.41
2023-01-17T12:33:51.922Z,9.54
2023-01-17T12:37:04.350Z,9.45
2023-01-17T12:40:22.171Z,8.99
2023-01-17T12:43:33.571Z,8.65
2023-01-17T12:46:49.128Z,8.44
2023-01-17T12:50:03.340Z,8.24
2023-01-17T12:53:20.784Z,8.00
2023-01-17T12:56:33.356Z,7.78
2023-01-17T12:59:46.428Z,7.61
2023-01-17T13:03:00.880Z,8.41
2023-01-17T13:06:12.187Z,9.04
2023-01-17T13:09:23.619Z,8.35
2023-01-17T13:12:33.908Z,7.68
2023-01-17T13:15:44.007Z,7.22
2023-01-17T13:18:52.211Z,7.99
2023-01-17T13:22:02.033Z,8.99
2023-01-17T13:25:22.946Z,8.75
2023-01-17T13:28:45.043Z,8.02
2023-01-17T13:32:06.720Z,7.45
2023-01-17T13:35:27.713Z,7.51
2023-01-17T13:38:55.023Z,8.96
2023-01-17T13:42:18.067Z,9.83
2023-01-17T13:45:28.092Z,8.74
2023-01-17T13:48:38.518Z,7.94
2023-01-17T13:52:10.834Z,7.40
2023-01-17T13:55:47.145Z,6.99
2023-01-17T13:59:03.425Z,7.71
2023-01-17T14:02:39.528Z,8.72
2023-01-17T14:05:56.989Z,8.09
2023-01-17T14:09:12.006Z,7.42
2023-01-17T14:12:31.989Z,7.02
2023-01-17T14:15:51.379Z,7.68
2023-01-17T14:18:58.664Z,8.76
2023-01-17T14:22:27.357Z,8.42
2023-01-17T14:25:41.764Z,7.64
2023-01-17T14:28:48.857Z,7.14
2023-01-17T14:32:06.650Z,6.74
2023-01-17T14:35:24.063Z,6.71
2023-01-17T14:38:33.085Z,7.74
2023-01-17T14:41:40.262Z,7.80
2023-01-17T14:44:53.305Z,6.96
2023-01-17T14:48:03.313Z,6.23
2023-01-17T14:51:16.135Z,5.77
2023-01-17T14:54:24.778Z,6.29
2023-01-17T14:57:32.014Z,7.37
2023-01-17T15:00:42.201Z,7.53
2023-01-17T15:03:51.629Z,6.64
2023-01-17T15:07:00.553Z,5.89
2023-01-17T15:10:12.896Z,5.64
2023-01-17T15:13:32.497Z,6.58
2023-01-17T15:16:45.849Z,7.53
2023-01-17T15:19:56.913Z,7.39
2023-01-17T15:23:04.183Z,6.32
2023-01-17T15:26:15.141Z,5.59
2023-01-17T15:29:27.116Z,5.56
2023-01-17T15:32:34.352Z,6.76
2023-01-17T15:35:40.985Z,7.40
2023-01-17T15:38:55.755Z,6.71
2023-01-17T15:42:06.565Z,5.92
2023-01-17T15:45:19.904Z,6.23
2023-01-17T15:48:38.669Z,7.42
2023-01-17T15:51:52.199Z,7.67
2023-01-17T15:55:13.566Z,6.76
2023-01-17T15:58:28.551Z,6.05
2023-01-17T16:01:35.703Z,5.84
2023-01-17T16:04:42.983Z,6.83
2023-01-17T16:07:51.235Z,7.50
2023-01-17T16:11:03.640Z,6.85
2023-01-17T16:14:10.500Z,6.08
2023-01-17T16:17:18.783Z,5.55
2023-01-17T16:20:29.502Z,5.47
2023-01-17T16:23:36.461Z,6.72
2023-01-17T16:26:43.483Z,7.97
2023-01-17T16:29:50.326Z,8.46
2023-01-17T16:32:58.648Z,8.10
2023-01-17T16:36:05.792Z,6.98
2023-01-17T16:39:16.302Z,6.12
2023-01-17T16:42:23.168Z,5.50
2023-01-17T16:45:30.026Z,5.01
2023-01-17T16:48:39.597Z,4.99
2023-01-17T16:51:48.493Z,6.49
2023-01-17T16:54:55.684Z,7.79
2023-01-17T16:58:02.697Z,8.25
2023-01-17T17:01:15.569Z,8.27
2023-01-17T17:04:22.806Z,7.11
2023-01-17T17:07:29.988Z,6.05
2023-01-17T17:10:36.866Z,5.27
2023-01-17T17:13:45.361Z,4.64
2023-01-17T17:16:52.787Z,4.10
2023-01-17T17:19:59.983Z,3.64
2023-01-17T17:23:06.934Z,3.70
2023-01-17T17:26:13.750Z,5.53
2023-01-17T17:29:20.967Z,6.99
2023-01-17T17:32:28.346Z,7.98
2023-01-17T17:35:37.265Z,8.22
2023-01-17T17:38:51.715Z,6.74
2023-01-17T17:41:58.727Z,5.41
2023-01-17T17:45:06.633Z,4.51
2023-01-17T17:48:13.476Z,3.83
2023-01-17T17:51:26.919Z,3.26
2023-01-17T17:54:33.781Z,2.75
2023-01-17T17:57:40.574Z,2.77
2023-01-17T18:00:47.811Z,4.35
2023-01-17T18:03:57.360Z,5.80
2023-01-17T18:07:04.332Z,6.98
2023-01-17T18:10:12.905Z,7.62
2023-01-17T18:13:19.702Z,7.23
2023-01-17T18:16:29.461Z,5.90
2023-01-17T18:19:36.338Z,4.87
2023-01-17T18:22:43.930Z,4.21
2023-01-17T18:25:51.021Z,3.64
2023-01-17T18:28:59.889Z,3.11
2023-01-17T18:32:07.109Z,3.05
2023-01-17T18:35:13.968Z,4.50
2023-01-17T18:38:20.814Z,5.79
2023-01-17T18:41:29.196Z,6.58
2023-01-17T18:44:36.001Z,7.11
2023-01-17T18:47:43.119Z,6.59
2023-01-17T18:50:59.407Z,5.09
2023-01-17T18:54:08.852Z,3.95
2023-01-17T18:57:14.368Z,3.17
2023-01-17T19:00:23.482Z,2.52
2023-01-17T19:03:31.612Z,2.39
2023-01-17T19:06:41.591Z,3.87
2023-01-17T19:09:48.639Z,5.09
2023-01-17T19:12:55.431Z,5.87
2023-01-17T19:16:04.166Z,6.39
2023-01-17T19:19:14.028Z,6.22
2023-01-17T19:22:21.697Z,4.70
2023-01-17T19:25:28.605Z,3.49
2023-01-17T19:28:38.179Z,2.64
2023-01-17T19:31:43.764Z,2.37
2023-01-17T19:34:50.828Z,3.49
2023-01-17T19:37:57.987Z,4.55
2023-01-17T19:41:14.764Z,5.23
2023-01-17T19:44:21.863Z,5.74
2023-01-17T19:47:28.693Z,5.80
2023-01-17T19:50:35.573Z,4.46
2023-01-17T19:53:43.313Z,3.22
2023-01-17T19:56:50.203Z,2.61
2023-01-17T19:59:57.006Z,3.60
2023-01-17T20:03:03.655Z,4.64
2023-01-17T20:06:11.851Z,5.30
2023-01-17T20:09:19.346Z,5.77
2023-01-17T20:12:26.209Z,6.13
2023-01-17T20:15:33.195Z,5.89
2023-01-17T20:18:41.540Z,4.27
2023-01-17T20:21:48.305Z,2.84
2023-01-17T20:24:55.347Z,2.28
2023-01-17T20:28:04.914Z,3.34
2023-01-17T20:31:12.738Z,4.30
2023-01-17T20:34:19.686Z,4.94
2023-01-17T20:37:26.596Z,5.42
2023-01-17T20:40:33.799Z,4.47
2023-01-17T20:43:40.825Z,3.05
2023-01-17T20:46:48.730Z,2.03
2023-01-17T20:49:55.633Z,1.67
2023-01-17T20:53:02.309Z,2.84
2023-01-17T20:56:09.861Z,4.07
2023-01-17T20:59:19.439Z,4.90
2023-01-17T21:02:24.752Z,5.50
2023-01-17T21:05:31.523Z,5.92
2023-01-17T21:08:39.416Z,5.80
2023-01-17T21:11:46.854Z,4.28
2023-01-17T21:14:53.828Z,2.99
2023-01-17T21:18:00.507Z,2.47
2023-01-17T21:21:09.090Z,3.59
2023-01-17T21:24:18.778Z,4.83
2023-01-17T21:27:25.600Z,5.43
2023-01-17T21:30:32.362Z,5.63
2023-01-17T21:33:39.183Z,5.27
2023-01-17T21:36:46.023Z,3.82
2023-01-17T21:39:54.973Z,2.62
2023-01-17T21:43:01.801Z,2.12
2023-01-17T21:46:08.869Z,3.09
2023-01-17T21:49:17.311Z,3.96
2023-01-17T21:52:24.425Z,4.50
2023-01-17T21:55:49.114Z,4.84
2023-01-17T21:58:57.549Z,5.18
2023-01-17T22:02:04.193Z,5.42
2023-01-17T22:05:12.612Z,5.66
2023-01-17T22:08:19.490Z,5.90
2023-01-17T22:11:30.592Z,5.70
2023-01-17T22:14:38.642Z,4.23
2023-01-17T22:17:46.591Z,3.02
2023-01-17T22:20:53.293Z,2.48
2023-01-17T22:24:01.385Z,3.49
2023-01-17T22:27:09.906Z,4.44
2023-01-17T22:30:19.549Z,5.10
2023-01-17T22:33:24.699Z,5.54
2023-01-17T22:36:34.987Z,5.84
2023-01-17T22:39:42.036Z,5.49
2023-01-17T22:42:48.931Z,3.89
2023-01-17T22:46:02.254Z,2.64
2023-01-17T22:49:10.600Z,2.53
2023-01-17T22:52:17.395Z,3.71
2023-01-17T22:55:24.296Z,4.54
2023-01-17T22:58:31.745Z,4.83
2023-01-17T23:01:40.586Z,5.02
2023-01-17T23:04:48.997Z,5.21
2023-01-17T23:07:55.972Z,5.01
2023-01-17T23:11:20.096Z,3.61
2023-01-17T23:14:29.514Z,2.26
2023-01-17T23:18:08.535Z,1.65
2023-01-17T23:21:15.218Z,2.81
2023-01-17T23:24:22.015Z,3.94
2023-01-17T23:27:49.817Z,4.57
2023-01-17T23:31:01.574Z,5.03
2023-01-17T23:34:08.219Z,5.34
2023-01-17T23:37:14.933Z,4.99
2023-01-17T23:40:21.968Z,3.51
2023-01-17T23:43:28.627Z,2.24
2023-01-17T23:46:35.451Z,1.25
2023-01-17T23:49:43.488Z,0.71
2023-01-17T23:52:50.272Z,1.88
2023-01-17T23:55:59.517Z,3.38
2023-01-17T23:59:06.379Z,4.26
